Time;durP1;ratioP1;P1;durP2;ratioP2;P2;SDS_P1;SDS_P2;PMS_P1;PMS_P2;Temp;Humidity;BMP_temperature;BMP_pressure;BME280_temperature;BME280_humidity;BME280_pressure;Samples;Min_cycle;Max_cycle;Signal;HPM_P1;HPM_P2
2022/02/14 00:01:42;;;;;;;0.20;0.20;;;5.10;99.90;;;;;;5066085;28;20642;-83
2022/02/14 00:04:07;;;;;;;0.73;0.40;;;5.00;99.90;;;;;;5058144;28;20200;-83
2022/02/14 00:06:33;;;;;;;1.10;0.47;;;5.00;99.90;;;;;;5058562;28;20205;-83
2022/02/14 00:08:58;;;;;;;0.47;0.40;;;5.00;99.90;;;;;;5063997;28;20177;-84
2022/02/14 00:11:24;;;;;;;0.60;0.40;;;5.00;99.90;;;;;;5061728;28;20205;-83
2022/02/14 00:13:51;;;;;;;0.30;0.30;;;5.10;99.90;;;;;;5063768;28;20662;-83
2022/02/14 00:16:17;;;;;;;0.10;0.10;;;5.10;99.90;;;;;;5064123;28;20206;-83
2022/02/14 00:18:42;;;;;;;1.03;0.77;;;5.10;99.90;;;;;;5061959;28;20192;-84
2022/02/14 00:21:08;;;;;;;1.00;0.53;;;5.10;99.90;;;;;;5065165;28;20274;-84
2022/02/14 00:23:34;;;;;;;0.77;0.40;;;5.10;99.90;;;;;;5057903;28;20249;-84
2022/02/14 00:25:59;;;;;;;0.20;0.20;;;5.10;99.90;;;;;;5057443;28;20204;-83
2022/02/14 00:28:25;;;;;;;1.33;0.73;;;5.10;99.90;;;;;;5060794;28;20196;-83
2022/02/14 00:30:50;;;;;;;0.27;0.27;;;5.00;99.90;;;;;;5068717;28;20635;-83
2022/02/14 00:33:16;;;;;;;0.17;0.17;;;4.90;99.90;;;;;;5059169;28;20278;-83
2022/02/14 00:35:42;;;;;;;0.47;0.47;;;4.90;99.90;;;;;;5069499;28;20262;-84
2022/02/14 00:38:07;;;;;;;0.30;0.30;;;4.80;99.90;;;;;;5059014;28;20193;-83
2022/02/14 00:40:33;;;;;;;0.20;0.20;;;4.80;99.90;;;;;;5063144;28;20220;-83
2022/02/14 00:42:59;;;;;;;0.40;0.40;;;4.80;99.90;;;;;;5058686;28;20546;-83
2022/02/14 00:45:24;;;;;;;0.47;0.47;;;4.80;99.90;;;;;;5064642;28;20215;-83
2022/02/14 00:47:50;;;;;;;0.20;0.20;;;4.70;99.90;;;;;;5059247;28;20189;-83
2022/02/14 00:50:16;;;;;;;0.83;0.73;;;4.60;99.90;;;;;;5062681;28;20176;-83
2022/02/14 00:52:41;;;;;;;0.30;0.30;;;4.60;99.90;;;;;;5064009;28;20732;-83
2022/02/14 00:55:09;;;;;;;0.33;0.33;;;4.50;99.90;;;;;;5063800;28;20208;-84
2022/02/14 00:57:35;;;;;;;0.30;0.30;;;4.50;99.90;;;;;;5059067;28;20196;-84
2022/02/14 01:00:00;;;;;;;2.53;0.40;;;4.40;99.90;;;;;;5067105;28;20264;-83
2022/02/14 01:02:32;;;;;;;0.47;0.47;;;4.40;99.90;;;;;;5098392;28;20647;-82
2022/02/14 01:04:58;;;;;;;0.50;0.37;;;4.40;99.90;;;;;;5080265;28;20196;-83
2022/02/14 01:07:23;;;;;;;0.10;0.10;;;4.30;99.90;;;;;;5079590;28;20181;-83
2022/02/14 01:09:49;;;;;;;0.30;0.30;;;4.30;99.90;;;;;;5078799;28;20185;-83
2022/02/14 01:12:15;;;;;;;1.13;0.47;;;4.30;99.90;;;;;;5080150;28;20196;-83
2022/02/14 01:14:42;;;;;;;1.10;0.60;;;4.20;99.90;;;;;;5085018;28;20184;-83
2022/02/14 01:17:08;;;;;;;0.20;0.20;;;4.20;99.90;;;;;;5077440;28;20274;-83
2022/02/14 01:19:33;;;;;;;0.30;0.27;;;4.20;99.90;;;;;;5085101;28;20191;-83
2022/02/14 01:21:59;;;;;;;0.10;0.10;;;4.10;99.90;;;;;;5083351;28;20215;-83
2022/02/14 01:24:24;;;;;;;0.50;0.50;;;4.20;99.90;;;;;;5088627;28;20215;-83
2022/02/14 01:26:50;;;;;;;0.50;0.50;;;4.10;99.90;;;;;;5074752;28;20294;-83
2022/02/14 01:29:17;;;;;;;0.37;0.37;;;4.10;99.90;;;;;;5081206;28;20179;-83
2022/02/14 01:31:42;;;;;;;0.30;0.30;;;4.10;99.90;;;;;;5077576;28;20185;-83
2022/02/14 01:34:08;;;;;;;0.33;0.33;;;4.10;99.90;;;;;;5079917;28;20179;-83
2022/02/14 01:36:33;;;;;;;0.57;0.50;;;4.10;99.90;;;;;;5079511;28;20257;-82
2022/02/14 01:38:59;;;;;;;0.63;0.63;;;4.10;99.90;;;;;;5080948;28;20553;-82
2022/02/14 01:41:25;;;;;;;0.10;0.10;;;4.00;99.90;;;;;;5079844;28;20261;-82
2022/02/14 01:43:50;;;;;;;0.30;0.30;;;4.00;99.90;;;;;;5078471;28;20184;-83
2022/02/14 01:46:16;;;;;;;0.80;0.80;;;4.00;99.90;;;;;;5081628;28;20205;-83
2022/02/14 01:48:41;;;;;;;0.63;0.43;;;3.90;99.90;;;;;;5084443;28;20183;-83
2022/02/14 01:51:08;;;;;;;0.10;0.10;;;4.00;99.90;;;;;;5080845;28;20190;-83
2022/02/14 01:53:34;;;;;;;0.30;0.30;;;4.00;99.90;;;;;;5086702;28;20674;-84
2022/02/14 01:55:59;;;;;;;0.47;0.30;;;4.00;99.90;;;;;;5076134;28;20292;-83
2022/02/14 01:58:25;;;;;;;0.10;0.10;;;3.90;99.90;;;;;;5083106;28;20282;-83
2022/02/14 02:00:51;;;;;;;0.50;0.50;;;3.90;99.90;;;;;;5078030;28;20216;-83
2022/02/14 02:03:18;;;;;;;0.60;0.30;;;3.90;99.90;;;;;;5080492;28;20182;-82
2022/02/14 02:05:45;;;;;;;0.30;0.30;;;3.90;99.90;;;;;;5078780;28;20319;-83
2022/02/14 02:08:13;;;;;;;0.30;0.30;;;4.00;99.90;;;;;;5079143;28;20187;-83
2022/02/14 02:10:38;;;;;;;0.20;0.20;;;3.90;99.90;;;;;;5080634;28;20552;-83
2022/02/14 02:13:04;;;;;;;0.20;0.20;;;3.90;99.90;;;;;;5070389;28;20185;-83
2022/02/14 02:15:31;;;;;;;0.87;0.43;;;3.90;99.90;;;;;;5065864;28;20213;-83
2022/02/14 02:17:57;;;;;;;0.20;0.20;;;3.90;99.90;;;;;;5065199;28;20180;-83
2022/02/14 02:20:22;;;;;;;0.30;0.30;;;3.90;99.90;;;;;;5070503;28;20185;-83
2022/02/14 02:22:49;;;;;;;0.60;0.60;;;3.80;99.90;;;;;;5071937;28;20191;-83
2022/02/14 02:25:16;;;;;;;0.20;0.20;;;3.90;99.90;;;;;;5061797;28;20701;-84
2022/02/14 02:27:43;;;;;;;1.00;0.40;;;3.90;99.90;;;;;;5066101;28;20191;-83
2022/02/14 02:30:11;;;;;;;0.43;0.30;;;4.00;99.90;;;;;;5069072;28;20181;-83
2022/02/14 02:32:37;;;;;;;0.20;0.20;;;3.90;99.90;;;;;;5070157;28;20603;-83
2022/02/14 02:35:05;;;;;;;7.17;0.73;;;3.90;99.90;;;;;;5065725;28;20204;-83
2022/02/14 02:37:31;;;;;;;0.23;0.17;;;4.00;99.90;;;;;;5064972;28;20215;-83
2022/02/14 02:39:57;;;;;;;0.77;0.73;;;4.00;99.90;;;;;;5058567;28;20207;-82
2022/02/14 02:42:23;;;;;;;0.30;0.30;;;3.90;99.90;;;;;;5069886;28;20290;-83
2022/02/14 02:44:50;;;;;;;0.50;0.20;;;3.90;99.90;;;;;;5066122;28;20233;-83
2022/02/14 02:47:18;;;;;;;0.57;0.43;;;3.80;99.90;;;;;;5066098;28;20170;-83
2022/02/14 02:49:44;;;;;;;0.20;0.20;;;3.70;99.90;;;;;;5064964;28;20181;-83
2022/02/14 02:52:11;;;;;;;0.30;0.30;;;3.70;99.90;;;;;;5065048;28;20191;-82
2022/02/14 02:54:37;;;;;;;0.40;0.40;;;3.70;99.90;;;;;;5064747;28;20197;-82
2022/02/14 02:57:04;;;;;;;0.30;0.30;;;3.60;99.90;;;;;;5061996;28;20204;-83
2022/02/14 02:59:34;;;;;;;0.50;0.50;;;3.60;99.90;;;;;;5066577;28;20677;-83
2022/02/14 03:02:01;;;;;;;0.27;0.27;;;3.60;99.90;;;;;;5048520;28;20211;-83
2022/02/14 03:04:27;;;;;;;0.93;0.43;;;3.50;99.90;;;;;;5065682;28;20194;-83
2022/02/14 03:06:52;;;;;;;1.50;0.27;;;3.50;99.90;;;;;;5066196;28;20212;-83
2022/02/14 03:09:18;;;;;;;0.30;0.30;;;3.50;99.90;;;;;;5067532;28;20195;-83
2022/02/14 03:11:44;;;;;;;0.73;0.13;;;3.50;99.90;;;;;;5063163;28;20544;-83
2022/02/14 03:14:11;;;;;;;0.37;0.37;;;3.50;99.90;;;;;;5065096;28;20181;-83
2022/02/14 03:16:37;;;;;;;0.10;0.10;;;3.50;99.90;;;;;;5063651;28;20205;-83
2022/02/14 03:19:03;;;;;;;0.30;0.23;;;3.50;99.90;;;;;;5064976;28;20563;-82
2022/02/14 03:21:29;;;;;;;0.30;0.30;;;3.50;99.90;;;;;;5064455;28;20199;-83
2022/02/14 03:23:56;;;;;;;0.20;0.20;;;3.60;99.90;;;;;;5063592;28;20192;-82
2022/02/14 03:26:22;;;;;;;0.20;0.20;;;3.60;99.90;;;;;;5063799;28;20197;-83
2022/02/14 03:28:50;;;;;;;0.10;0.10;;;3.60;99.90;;;;;;5064067;28;20187;-83
2022/02/14 03:31:16;;;;;;;0.47;0.47;;;3.50;99.90;;;;;;5066649;28;20211;-83
2022/02/14 03:33:43;;;;;;;0.40;0.33;;;3.60;99.90;;;;;;5061824;28;20264;-83
2022/02/14 03:36:10;;;;;;;0.40;0.30;;;3.50;99.90;;;;;;5067285;28;20208;-83
2022/02/14 03:38:36;;;;;;;1.20;1.10;;;3.50;99.90;;;;;;5060801;28;20188;-83
2022/02/14 03:41:02;;;;;;;0.77;0.43;;;3.40;99.90;;;;;;5070636;28;20207;-83
2022/02/14 03:43:28;;;;;;;0.50;0.50;;;3.40;99.90;;;;;;5073181;28;20171;-83
2022/02/14 03:45:54;;;;;;;0.17;0.17;;;3.30;99.90;;;;;;5060814;28;20212;-83
2022/02/14 03:48:23;;;;;;;1.80;0.30;;;3.40;99.90;;;;;;5059905;28;20654;-83
2022/02/14 03:50:52;;;;;;;2.03;1.90;;;3.40;99.90;;;;;;5061688;28;20208;-82
2022/02/14 03:53:18;;;;;;;0.23;0.23;;;3.40;99.90;;;;;;5066344;28;20183;-83
2022/02/14 03:55:44;;;;;;;0.67;0.67;;;3.40;99.90;;;;;;5063492;28;20719;-83
2022/02/14 03:58:09;;;;;;;0.40;0.40;;;3.30;99.90;;;;;;5056709;28;20193;-83
2022/02/14 04:00:35;;;;;;;0.77;0.43;;;3.30;99.90;;;;;;5073907;28;20280;-83
2022/02/14 04:03:01;;;;;;;0.37;0.37;;;3.30;99.90;;;;;;5063489;28;20254;-83
2022/02/14 04:05:26;;;;;;;0.30;0.30;;;3.30;99.90;;;;;;5063456;28;20559;-83
2022/02/14 04:07:57;;;;;;;0.93;0.30;;;3.40;99.90;;;;;;5062415;28;20188;-83
2022/02/14 04:10:23;;;;;;;0.23;0.23;;;3.40;99.90;;;;;;5064860;28;20209;-83
2022/02/14 04:12:48;;;;;;;0.57;0.33;;;3.50;99.90;;;;;;5063550;28;20570;-81
2022/02/14 04:15:14;;;;;;;0.40;0.40;;;3.50;99.90;;;;;;5064807;28;20444;-82
2022/02/14 04:17:41;;;;;;;0.47;0.47;;;3.40;99.90;;;;;;5060757;28;20206;-83
2022/02/14 04:20:07;;;;;;;0.20;0.20;;;3.40;99.90;;;;;;5062202;28;20271;-83
2022/02/14 04:22:33;;;;;;;0.10;0.10;;;3.40;99.90;;;;;;5067554;28;20632;-84
2022/02/14 04:24:58;;;;;;;0.10;0.10;;;3.40;99.90;;;;;;5059622;28;20182;-83
2022/02/14 04:27:24;;;;;;;0.20;0.20;;;3.40;99.90;;;;;;5062093;28;20321;-83
2022/02/14 04:29:49;;;;;;;0.20;0.20;;;3.40;99.90;;;;;;5061038;28;20558;-83
2022/02/14 04:32:15;;;;;;;0.50;0.50;;;3.40;99.90;;;;;;5065781;28;20187;-83
2022/02/14 04:34:41;;;;;;;0.20;0.20;;;3.30;99.90;;;;;;5063168;28;20193;-83
2022/02/14 04:37:06;;;;;;;0.33;0.27;;;3.30;99.90;;;;;;5062935;28;20184;-83
2022/02/14 04:39:32;;;;;;;0.23;0.20;;;3.30;99.90;;;;;;5063404;28;20283;-83
2022/02/14 04:41:57;;;;;;;0.93;0.93;;;3.30;99.90;;;;;;5063367;28;20209;-83
2022/02/14 04:44:23;;;;;;;0.30;0.30;;;3.20;99.90;;;;;;5055302;28;20735;-83
2022/02/14 04:46:48;;;;;;;1.13;0.30;;;3.10;99.90;;;;;;5062713;28;20204;-83
2022/02/14 04:49:15;;;;;;;0.10;0.10;;;3.10;99.90;;;;;;5067220;28;20633;-82
2022/02/14 04:51:40;;;;;;;0.03;0.03;;;3.00;99.90;;;;;;5061551;28;20244;-83
2022/02/14 04:54:06;;;;;;;0.23;0.23;;;3.00;99.90;;;;;;5068045;28;20187;-83
2022/02/14 04:56:31;;;;;;;0.37;0.37;;;3.00;99.90;;;;;;5067401;28;20212;-82
2022/02/14 04:58:57;;;;;;;1.40;0.80;;;3.00;99.90;;;;;;5059853;28;20187;-83
2022/02/14 05:01:23;;;;;;;0.10;0.10;;;3.00;99.90;;;;;;5065201;28;20247;-83
2022/02/14 05:03:50;;;;;;;0.47;0.33;;;3.00;99.90;;;;;;5062067;28;20195;-83
2022/02/14 05:06:15;;;;;;;0.20;0.20;;;3.00;99.90;;;;;;5064911;28;20205;-83
2022/02/14 05:08:41;;;;;;;0.70;0.50;;;3.00;99.90;;;;;;5061814;28;20194;-82
2022/02/14 05:11:07;;;;;;;0.10;0.10;;;2.90;99.90;;;;;;5064179;28;20202;-83
2022/02/14 05:13:33;;;;;;;0.23;0.23;;;2.90;99.90;;;;;;5063386;28;20221;-83
2022/02/14 05:15:58;;;;;;;0.30;0.30;;;2.90;99.90;;;;;;5064742;28;20198;-83
2022/02/14 05:18:24;;;;;;;0.50;0.50;;;2.80;99.90;;;;;;5063485;28;20187;-82
2022/02/14 05:20:50;;;;;;;0.47;0.47;;;2.70;99.90;;;;;;5062776;28;20940;-82
2022/02/14 05:23:15;;;;;;;0.73;0.73;;;2.60;99.90;;;;;;5066685;28;20261;-83
2022/02/14 05:25:41;;;;;;;0.87;0.47;;;2.70;99.90;;;;;;5059754;28;20202;-83
2022/02/14 05:28:10;;;;;;;0.53;0.13;;;2.70;99.90;;;;;;5061949;28;20231;-83
2022/02/14 05:30:37;;;;;;;0.57;0.30;;;2.60;99.90;;;;;;5063490;28;20182;-82
2022/02/14 05:33:03;;;;;;;0.47;0.47;;;2.60;99.90;;;;;;5064655;28;20174;-83
2022/02/14 05:35:29;;;;;;;0.20;0.20;;;2.60;99.90;;;;;;5066588;28;20198;-83
2022/02/14 05:37:55;;;;;;;1.80;0.50;;;2.60;99.90;;;;;;5061012;28;20191;-82
2022/02/14 05:40:21;;;;;;;1.33;0.87;;;2.70;99.90;;;;;;5062114;28;20179;-83
2022/02/14 05:42:47;;;;;;;0.20;0.20;;;2.80;99.90;;;;;;5067187;28;20247;-82
2022/02/14 05:45:13;;;;;;;1.30;0.63;;;3.00;99.90;;;;;;5065415;28;20667;-82
2022/02/14 05:47:38;;;;;;;0.10;0.10;;;3.10;99.90;;;;;;5064796;28;20196;-83
2022/02/14 05:50:05;;;;;;;0.50;0.50;;;3.30;99.90;;;;;;5061137;28;20559;-82
2022/02/14 05:52:31;;;;;;;0.20;0.20;;;3.20;99.90;;;;;;5071934;28;20188;-83
2022/02/14 05:54:56;;;;;;;0.20;0.20;;;3.30;99.90;;;;;;5065887;28;20196;-82
2022/02/14 05:57:22;;;;;;;0.40;0.33;;;3.40;99.90;;;;;;5067442;28;20188;-82
2022/02/14 05:59:48;;;;;;;2.53;0.50;;;3.50;99.90;;;;;;5065760;28;20195;-83
2022/02/14 06:02:13;;;;;;;0.20;0.20;;;3.70;99.90;;;;;;5068090;28;20214;-83
2022/02/14 06:04:39;;;;;;;0.27;0.27;;;3.60;99.90;;;;;;5067033;28;20181;-83
2022/02/14 06:07:05;;;;;;;0.27;0.27;;;3.70;99.90;;;;;;5056234;28;20199;-83
2022/02/14 06:09:31;;;;;;;0.30;0.30;;;3.80;99.90;;;;;;5066304;28;20182;-83
2022/02/14 06:11:57;;;;;;;0.30;0.30;;;3.80;99.90;;;;;;5066976;28;20176;-82
2022/02/14 06:14:23;;;;;;;0.27;0.27;;;3.80;99.90;;;;;;5074145;28;20188;-83
2022/02/14 06:16:49;;;;;;;0.20;0.20;;;3.70;99.90;;;;;;5063433;28;20211;-83
2022/02/14 06:19:15;;;;;;;0.43;0.43;;;3.80;99.90;;;;;;5067917;28;20642;-83
2022/02/14 06:21:40;;;;;;;0.37;0.37;;;3.70;99.90;;;;;;5065620;28;20234;-83
2022/02/14 06:24:06;;;;;;;0.30;0.30;;;3.80;99.90;;;;;;5067015;28;20184;-83
2022/02/14 06:26:32;;;;;;;0.50;0.23;;;3.90;99.90;;;;;;5057328;28;20199;-83
2022/02/14 06:28:59;;;;;;;0.30;0.30;;;3.90;99.90;;;;;;5065497;28;20204;-83
2022/02/14 06:31:26;;;;;;;2.77;1.90;;;3.90;99.90;;;;;;5065520;28;20239;-83
2022/02/14 06:33:52;;;;;;;0.27;0.27;;;4.00;99.90;;;;;;5065504;28;20193;-83
2022/02/14 06:36:19;;;;;;;0.13;0.13;;;4.20;99.90;;;;;;5067455;28;20701;-82
2022/02/14 06:38:45;;;;;;;1.17;0.60;;;4.20;99.90;;;;;;5064876;28;20186;-82
2022/02/14 06:41:11;;;;;;;0.40;0.33;;;4.30;99.90;;;;;;5068764;28;20204;-83
2022/02/14 06:43:37;;;;;;;0.30;0.30;;;4.30;99.90;;;;;;5063249;28;20181;-86
2022/02/14 06:46:03;;;;;;;0.77;0.77;;;4.40;99.90;;;;;;5069254;28;20200;-83
2022/02/14 06:48:28;;;;;;;0.17;0.17;;;4.30;99.90;;;;;;5062096;28;20181;-82
2022/02/14 06:50:55;;;;;;;4.07;0.40;;;4.30;99.90;;;;;;5070027;28;20283;-83
2022/02/14 06:53:20;;;;;;;0.17;0.17;;;4.40;99.90;;;;;;5069511;28;20266;-83
2022/02/14 06:55:46;;;;;;;1.07;0.37;;;4.50;99.90;;;;;;5062936;28;20700;-82
2022/02/14 06:58:11;;;;;;;1.33;0.53;;;4.60;99.90;;;;;;5064876;28;20180;-82
2022/02/14 07:00:37;;;;;;;0.87;0.87;;;4.50;99.90;;;;;;5063722;28;20243;-84
2022/02/14 07:03:03;;;;;;;0.50;0.50;;;4.60;99.90;;;;;;5069902;28;20176;-83
2022/02/14 07:05:28;;;;;;;0.80;0.80;;;4.80;99.90;;;;;;5064511;28;20193;-83
2022/02/14 07:07:54;;;;;;;0.67;0.30;;;4.80;99.90;;;;;;5064758;28;20268;-83
2022/02/14 07:10:20;;;;;;;0.57;0.43;;;4.80;99.90;;;;;;5071900;28;20268;-83
2022/02/14 07:12:46;;;;;;;0.50;0.50;;;4.70;99.90;;;;;;5063028;28;20173;-83
2022/02/14 07:15:13;;;;;;;2.00;1.27;;;4.60;99.90;;;;;;5068824;28;20189;-82
2022/02/14 07:17:40;;;;;;;0.43;0.43;;;4.50;99.90;;;;;;5062652;28;20263;-83
2022/02/14 07:20:06;;;;;;;0.30;0.30;;;4.70;99.90;;;;;;5067373;28;20667;-82
2022/02/14 07:22:31;;;;;;;1.40;0.53;;;4.60;99.90;;;;;;5061000;28;20209;-83
2022/02/14 07:24:57;;;;;;;0.70;0.40;;;4.50;99.90;;;;;;5068981;28;20181;-83
2022/02/14 07:27:22;;;;;;;0.90;0.50;;;4.60;99.90;;;;;;5059514;28;20554;-82
2022/02/14 07:29:48;;;;;;;0.70;0.70;;;4.60;99.90;;;;;;5065152;28;20176;-83
2022/02/14 07:32:13;;;;;;;0.73;0.40;;;4.50;99.90;;;;;;5067419;28;20188;-83
2022/02/14 07:34:39;;;;;;;0.27;0.20;;;4.60;99.90;;;;;;5072316;28;20207;-83
2022/02/14 07:37:05;;;;;;;7.70;0.83;;;4.60;99.90;;;;;;5063991;28;20292;-83
2022/02/14 07:39:32;;;;;;;0.57;0.57;;;4.60;99.90;;;;;;5053904;28;20270;-83
2022/02/14 07:41:58;;;;;;;0.93;0.73;;;4.70;99.90;;;;;;5065807;28;20305;-83
2022/02/14 07:44:24;;;;;;;0.10;0.10;;;4.80;99.90;;;;;;5072219;28;20184;-83
2022/02/14 07:46:51;;;;;;;0.20;0.20;;;4.80;99.90;;;;;;5063384;28;20229;-83
2022/02/14 07:49:21;;;;;;;11.13;0.50;;;4.80;99.90;;;;;;5066288;28;20178;-83
2022/02/14 07:51:46;;;;;;;3.27;0.87;;;4.90;99.90;;;;;;5068270;28;20268;-83
2022/02/14 07:54:12;;;;;;;0.70;0.57;;;5.00;99.90;;;;;;5071923;28;20264;-83
2022/02/14 07:56:38;;;;;;;0.50;0.30;;;5.10;99.90;;;;;;5063313;28;20235;-82
2022/02/14 07:59:04;;;;;;;1.03;0.90;;;5.10;99.90;;;;;;5067811;28;20623;-83
2022/02/14 08:01:29;;;;;;;0.30;0.30;;;5.20;99.90;;;;;;5067922;28;20220;-82
2022/02/14 08:03:55;;;;;;;0.10;0.10;;;5.20;99.90;;;;;;5060650;28;20268;-83
2022/02/14 08:06:20;;;;;;;0.77;0.60;;;5.30;99.90;;;;;;5066420;28;20201;-83
2022/02/14 08:08:46;;;;;;;0.93;0.47;;;5.30;99.90;;;;;;5063449;28;20538;-82
2022/02/14 08:11:11;;;;;;;0.80;0.50;;;5.40;99.90;;;;;;5063493;28;20227;-83
2022/02/14 08:13:37;;;;;;;1.17;1.07;;;5.40;99.90;;;;;;5063566;28;20204;-84
2022/02/14 08:16:03;;;;;;;1.07;0.97;;;5.40;99.90;;;;;;5063098;28;20294;-84
2022/02/14 08:18:28;;;;;;;0.43;0.43;;;5.40;99.90;;;;;;5063370;28;20184;-83
2022/02/14 08:20:54;;;;;;;0.20;0.20;;;5.50;99.90;;;;;;5064171;28;20209;-84
2022/02/14 08:23:19;;;;;;;0.30;0.30;;;5.50;99.90;;;;;;5057472;28;20188;-83
2022/02/14 08:25:45;;;;;;;0.27;0.27;;;5.60;99.90;;;;;;5062750;28;20209;-83
2022/02/14 08:28:10;;;;;;;0.40;0.40;;;5.60;99.90;;;;;;5062209;28;20240;-83
2022/02/14 08:30:36;;;;;;;0.30;0.30;;;5.70;99.90;;;;;;5060303;28;20239;-83
2022/02/14 08:33:02;;;;;;;0.50;0.50;;;5.70;99.90;;;;;;5067694;28;20181;-83
2022/02/14 08:35:29;;;;;;;0.50;0.30;;;5.80;99.90;;;;;;5069027;28;20686;-84
2022/02/14 08:37:56;;;;;;;0.50;0.50;;;6.00;99.90;;;;;;5060288;28;20259;-83
2022/02/14 08:40:22;;;;;;;0.60;0.60;;;6.00;99.90;;;;;;5062459;28;20256;-83
2022/02/14 08:42:47;;;;;;;0.30;0.30;;;6.10;99.90;;;;;;5057806;28;20190;-82
2022/02/14 08:45:13;;;;;;;0.50;0.50;;;6.10;99.90;;;;;;5069130;28;20539;-82
2022/02/14 08:47:40;;;;;;;0.57;0.57;;;6.20;99.90;;;;;;5062919;28;20208;-83
2022/02/14 08:50:06;;;;;;;1.03;1.03;;;6.10;99.90;;;;;;5063590;28;20646;-82
2022/02/14 08:52:31;;;;;;;0.53;0.53;;;6.10;99.90;;;;;;5071123;28;20181;-82
2022/02/14 08:54:57;;;;;;;1.20;0.73;;;6.10;99.90;;;;;;5063080;28;20609;-82
2022/02/14 08:57:23;;;;;;;0.20;0.20;;;6.20;99.90;;;;;;5060993;28;20185;-83
2022/02/14 08:59:50;;;;;;;0.47;0.47;;;6.20;99.90;;;;;;5062015;28;20181;-82
2022/02/14 09:02:16;;;;;;;1.33;1.23;;;6.30;99.90;;;;;;5064639;28;20216;-82
2022/02/14 09:04:41;;;;;;;0.40;0.40;;;6.30;99.90;;;;;;5062491;28;20185;-81
2022/02/14 09:07:07;;;;;;;0.50;0.50;;;6.30;99.90;;;;;;5067335;28;20217;-82
2022/02/14 09:09:32;;;;;;;0.20;0.20;;;6.30;99.90;;;;;;5060980;28;20227;-82
2022/02/14 09:12:02;;;;;;;0.30;0.30;;;6.40;99.90;;;;;;5059745;28;20261;-82
2022/02/14 09:14:28;;;;;;;0.50;0.50;;;6.40;99.90;;;;;;5058544;28;20663;-82
2022/02/14 09:16:54;;;;;;;0.40;0.40;;;6.50;99.90;;;;;;5059968;28;20718;-82
2022/02/14 09:19:20;;;;;;;6.30;0.87;;;6.50;99.90;;;;;;5066526;28;20200;-81
2022/02/14 09:21:46;;;;;;;0.17;0.17;;;6.50;99.90;;;;;;5063480;28;20229;-83
2022/02/14 09:24:13;;;;;;;1.20;1.10;;;6.50;99.90;;;;;;5061319;28;20563;-83
2022/02/14 09:26:43;;;;;;;1.37;1.30;;;6.70;99.90;;;;;;5069488;28;20198;-82
2022/02/14 09:29:10;;;;;;;0.73;0.73;;;6.60;99.90;;;;;;5067252;28;20203;-82
2022/02/14 09:31:37;;;;;;;3.20;1.47;;;6.60;99.90;;;;;;5071829;28;20184;-83
2022/02/14 09:34:03;;;;;;;0.50;0.50;;;6.60;99.90;;;;;;5067214;28;20184;-82
2022/02/14 09:36:29;;;;;;;0.30;0.30;;;6.50;99.90;;;;;;5068838;28;20210;-82
2022/02/14 09:38:54;;;;;;;0.67;0.67;;;6.60;99.90;;;;;;5066583;28;20177;-82
2022/02/14 09:41:21;;;;;;;0.40;0.33;;;6.70;99.90;;;;;;5066082;28;20193;-82
2022/02/14 09:43:47;;;;;;;0.90;0.83;;;6.80;99.90;;;;;;5067135;28;20182;-81
2022/02/14 09:46:13;;;;;;;1.17;0.60;;;6.90;99.90;;;;;;5069608;28;20224;-82
2022/02/14 09:48:42;;;;;;;0.40;0.40;;;7.10;99.90;;;;;;5073195;28;20177;-82
2022/02/14 09:51:08;;;;;;;0.20;0.20;;;7.10;99.90;;;;;;5070204;28;20311;-83
2022/02/14 09:53:34;;;;;;;0.10;0.10;;;7.10;99.90;;;;;;5071338;28;20189;-83
2022/02/14 09:56:00;;;;;;;0.80;0.80;;;7.20;99.90;;;;;;5055314;28;20198;-82
2022/02/14 09:58:25;;;;;;;0.30;0.30;;;7.20;99.90;;;;;;5070226;28;20605;-82
2022/02/14 10:00:52;;;;;;;0.30;0.30;;;7.20;99.90;;;;;;5065251;28;20293;-82
2022/02/14 10:03:20;;;;;;;0.20;0.20;;;7.10;99.90;;;;;;5069821;28;20174;-82
2022/02/14 10:05:48;;;;;;;0.67;0.67;;;7.20;99.90;;;;;;5062193;28;20203;-82
2022/02/14 10:08:21;;;;;;;0.10;0.10;;;7.20;99.90;;;;;;5068121;28;20178;-82
2022/02/14 10:10:49;;;;;;;0.20;0.17;;;7.20;99.90;;;;;;5059950;28;20212;-82
2022/02/14 10:13:34;;;;;;;0.23;0.23;;;7.20;99.90;;;;;;5066512;28;20199;-83
2022/02/14 10:16:06;;;;;;;0.67;0.67;;;7.20;99.90;;;;;;5069231;28;20197;-82
2022/02/14 10:18:34;;;;;;;0.30;0.30;;;7.40;99.90;;;;;;5070464;28;20181;-82
2022/02/14 10:21:16;;;;;;;0.60;0.60;;;7.40;99.90;;;;;;5068005;28;20203;-81
2022/02/14 10:24:08;;;;;;;0.53;0.40;;;7.40;99.90;;;;;;5070106;28;20179;-81
2022/02/14 10:26:38;;;;;;;0.70;0.70;;;7.60;99.90;;;;;;5063349;28;20193;-81
2022/02/14 10:29:11;;;;;;;0.57;0.57;;;7.60;99.90;;;;;;5062879;28;20253;-81
2022/02/14 10:32:15;;;;;;;1.60;0.97;;;7.90;99.90;;;;;;5071073;28;20268;-82
2022/02/14 10:34:44;;;;;;;0.20;0.20;;;8.10;99.90;;;;;;5063619;28;20320;-82
2022/02/14 10:37:14;;;;;;;0.10;0.10;;;8.00;99.90;;;;;;5068279;28;20182;-83
2022/02/14 10:39:41;;;;;;;0.20;0.20;;;8.00;99.90;;;;;;5068805;28;20274;-82
2022/02/14 10:42:11;;;;;;;0.20;0.20;;;8.00;99.90;;;;;;5072901;28;20198;-82
2022/02/14 10:47:42;;;;;;;0.30;0.30;;;8.30;99.90;;;;;;5077494;28;20182;-82
2022/02/14 10:50:15;;;;;;;1.03;0.60;;;8.40;99.90;;;;;;5062485;28;20180;-82
2022/02/14 10:52:43;;;;;;;3.07;1.50;;;8.30;99.90;;;;;;5067319;28;21446;-82
2022/02/14 10:55:15;;;;;;;4.10;0.90;;;8.30;99.90;;;;;;5069087;28;20223;-82
2022/02/14 10:57:43;;;;;;;0.50;0.50;;;8.20;99.90;;;;;;5067639;28;20184;-82
2022/02/14 11:00:15;;;;;;;0.33;0.30;;;8.10;99.90;;;;;;5067624;28;20657;-83
2022/02/14 11:02:44;;;;;;;0.40;0.40;;;8.20;99.90;;;;;;5058498;28;20214;-82
2022/02/14 11:05:11;;;;;;;0.60;0.53;;;8.40;99.90;;;;;;5075946;28;20224;-82
2022/02/14 11:07:38;;;;;;;0.13;0.13;;;8.80;99.90;;;;;;5065315;28;20282;-82
2022/02/14 11:10:06;;;;;;;0.77;0.60;;;8.90;99.90;;;;;;5071719;28;20273;-82
2022/02/14 11:12:36;;;;;;;0.50;0.50;;;9.00;99.90;;;;;;5063640;28;20212;-84
2022/02/14 11:15:07;;;;;;;0.50;0.40;;;9.00;99.90;;;;;;5075566;28;20183;-82
2022/02/14 11:17:35;;;;;;;0.40;0.40;;;9.00;99.90;;;;;;5055098;28;20528;-82
2022/02/14 11:20:04;;;;;;;0.43;0.43;;;8.90;99.90;;;;;;5059938;28;20210;-84
2022/02/14 11:22:34;;;;;;;1.23;0.83;;;8.80;99.90;;;;;;5070824;28;20201;-82
2022/02/14 11:25:05;;;;;;;0.40;0.40;;;8.70;99.90;;;;;;5059001;28;20173;-82
2022/02/14 11:27:37;;;;;;;1.17;0.73;;;8.70;99.90;;;;;;5057662;28;20239;-83
2022/02/14 11:30:09;;;;;;;3.03;2.40;;;8.60;99.90;;;;;;5069318;28;20186;-83
2022/02/14 11:32:39;;;;;;;0.83;0.77;;;8.80;99.90;;;;;;5060473;28;20221;-82
2022/02/14 11:35:17;;;;;;;0.23;0.23;;;8.70;99.90;;;;;;5073054;28;20243;-82
2022/02/14 11:37:53;;;;;;;0.40;0.40;;;8.80;99.90;;;;;;5065066;28;20190;-84
2022/02/14 11:40:26;;;;;;;0.93;0.50;;;8.80;99.90;;;;;;5073549;28;20192;-82
2022/02/14 11:43:08;;;;;;;0.20;0.20;;;8.90;99.90;;;;;;5065402;28;20289;-82
2022/02/14 11:45:34;;;;;;;0.10;0.10;;;9.00;99.90;;;;;;5070418;28;20208;-82
2022/02/14 11:48:18;;;;;;;0.20;0.20;;;9.00;99.90;;;;;;5069607;28;20184;-82
2022/02/14 11:50:44;;;;;;;0.27;0.27;;;9.20;99.90;;;;;;5063726;28;20523;-82
2022/02/14 11:53:33;;;;;;;0.87;0.67;;;9.30;99.90;;;;;;5057874;28;20193;-82
2022/02/14 11:56:20;;;;;;;0.27;0.27;;;9.30;99.90;;;;;;5072020;28;20739;-83
2022/02/14 11:59:03;;;;;;;0.10;0.10;;;9.30;99.90;;;;;;5067053;28;20230;-83
2022/02/14 12:01:36;;;;;;;0.13;0.13;;;9.20;99.90;;;;;;5056087;28;20271;-82
2022/02/14 12:04:30;;;;;;;0.40;0.40;;;9.40;99.90;;;;;;5077665;28;20235;-82
2022/02/14 12:07:23;;;;;;;0.10;0.10;;;9.60;99.90;;;;;;5067982;28;20232;-82
2022/02/14 12:09:57;;;;;;;0.30;0.30;;;9.70;99.90;;;;;;5061941;28;20648;-83
2022/02/14 12:12:45;;;;;;;0.80;0.60;;;9.90;99.90;;;;;;5066298;28;20188;-82
2022/02/14 12:20:49;;;;;;;0.47;0.30;;;9.90;99.90;;;;;;5067583;28;20197;-82
2022/02/14 12:23:33;;;;;;;1.47;1.37;;;10.00;99.90;;;;;;5067777;28;20169;-83
2022/02/14 12:26:00;;;;;;;0.70;0.70;;;9.90;99.90;;;;;;5059553;28;20845;-83
2022/02/14 12:28:26;;;;;;;0.47;0.47;;;10.10;99.90;;;;;;5062389;28;20566;-83
2022/02/14 12:30:53;;;;;;;0.37;0.37;;;10.20;99.90;;;;;;5063405;28;20193;-83
2022/02/14 12:33:21;;;;;;;0.20;0.20;;;10.30;99.90;;;;;;5063890;28;20189;-82
2022/02/14 12:35:53;;;;;;;0.20;0.20;;;10.30;99.90;;;;;;5068103;28;20236;-82
2022/02/14 12:38:19;;;;;;;0.33;0.33;;;10.20;99.90;;;;;;5066741;28;20194;-83
2022/02/14 12:40:57;;;;;;;0.30;0.30;;;10.20;99.90;;;;;;5068981;28;20196;-83
2022/02/14 12:43:28;;;;;;;0.20;0.20;;;10.20;99.90;;;;;;5072438;28;20184;-82
2022/02/14 12:45:57;;;;;;;0.63;0.63;;;10.20;99.90;;;;;;5069027;28;20213;-83
2022/02/14 12:48:36;;;;;;;0.77;0.50;;;10.10;99.90;;;;;;5067247;28;20643;-83
2022/02/14 12:51:27;;;;;;;0.40;0.40;;;10.10;99.90;;;;;;5056505;28;20670;-83
2022/02/14 12:53:58;;;;;;;3.30;1.60;;;10.20;99.90;;;;;;5068363;28;20242;-83
2022/02/14 12:56:30;;;;;;;0.73;0.33;;;10.50;99.90;;;;;;5052503;28;20409;-83
2022/02/14 12:58:55;;;;;;;0.93;0.63;;;10.80;99.90;;;;;;5060404;28;20255;-83
2022/02/14 13:01:30;;;;;;;0.73;0.30;;;10.80;99.90;;;;;;5065663;28;20307;-83
2022/02/14 13:03:59;;;;;;;0.10;0.10;;;10.90;99.90;;;;;;5060586;28;20183;-83
2022/02/14 13:06:52;;;;;;;1.07;0.50;;;10.80;99.90;;;;;;5059693;28;20427;-83